Flight Track Log - Related Links

Times and Time Zones

All times are in EDT time to prevent confusion due to time zone crossing. See the EJA122 flight status page for this flight to view local times or setup timezone preferences in your user account.

Time Position Orientation Groundspeed Altitude Reporting Facility
EDT Latitude Longitude Course Direction KTS MPH feet Rate Location/Type
Thu 02:06:46 PM 40.0908 -75.0219 324° Northwest 152 175 1,000  Level FAA TRACON
Thu 02:07:06 PM 40.1036 -75.0339 324° Northwest 214 246 1,900 2,850 Climbing FAA TRACON
Thu 02:07:26 PM 40.1164 -75.0467 323° Northwest 196 226 2,900 2,850 Climbing FAA TRACON
Thu 02:07:46 PM 40.1292 -75.0572 328° Northwest 185 213 3,800 2,850 Climbing FAA TRACON
Thu 02:08:06 PM 40.1508 -75.0519 11° North 220 253 4,800 1,650 Climbing FAA TRACON
Thu 02:08:26 PM 40.1656 -75.0353 41° Northeast 256 295 4,900 300 Climbing FAA TRACON
Thu 02:08:46 PM 40.1725 -75.0092 71° East 254 292 5,000 150 Climbing FAA TRACON
Thu 02:09:06 PM 40.1736 -74.9725 88° East 271 312 5,000  Level FAA TRACON
Thu 02:09:27 PM 40.1750 -74.9414 87° East 275 316 5,000 146 Level FAA TRACON
Thu 02:09:47 PM 40.1772 -74.9019 86° East 275 316 5,100 154 Climbing FAA TRACON
Thu 02:10:06 PM 40.1794 -74.8711 85° East 276 318 5,100  Level FAA TRACON
Thu 02:10:26 PM 40.1814 -74.8403 85° East 276 318 5,100  Level FAA TRACON
Thu 02:10:46 PM 40.1833 -74.8108 85° East 277 319 5,100  Level FAA TRACON
Thu 02:11:06 PM 40.1856 -74.7700 86° East 279 321 5,100  Level FAA TRACON
Thu 02:11:26 PM 40.1875 -74.7389 85° East 279 321 5,100  Level FAA TRACON
Thu 02:11:46 PM 40.1897 -74.7086 85° East 278 320 5,100  Level FAA TRACON
Thu 02:12:06 PM 40.1794 -74.6703 109° East 290 334 5,100 -146 Level FAA TRACON
Thu 02:12:27 PM 40.1739 -74.6436 105° East 288 331 5,000  Descending FAA TRACON
Thu 02:12:47 PM 40.1633 -74.6031 109° East 280 322 5,100 150 Climbing FAA TRACON
Thu 02:13:07 PM 40.1564 -74.5733 107° East 279 321 5,100  Level FAA TRACON
Thu 02:13:27 PM 40.1492 -74.5436 108° East 279 321 5,100 300 Level FAA TRACON
Thu 02:13:47 PM 40.1403 -74.5114 110° East 278 320 5,300 900 Climbing FAA TRACON
Thu 02:14:07 PM 40.1344 -74.4797 104° East 280 322 5,700 1,200 Climbing FAA TRACON
Thu 02:14:27 PM 40.1256 -74.4467 109° East 280 322 6,100 600 Climbing FAA TRACON
Thu 02:14:47 PM 40.1172 -74.4114 107° East 284 327 6,100  Level FAA TRACON
Thu 02:15:08 PM 40.1089 -74.3772 108° East 289 333 6,100  Level FAA TRACON
Thu 02:15:48 PM 40.0958 -74.3228 107° East 291 335 6,100 -65 Level FAA TRACON
Thu 02:16:40 PM 40.0714 -74.2267 108° East 290 334 6,000 690 Descending New Center
Thu 02:17:41 PM 40.0492 -74.1333 107° East 290 334 7,400 1,835 Climbing New Center
Thu 02:18:41 PM 40.0228 -74.0264 108° East 295 339 9,700 1,322 Climbing New Center
Thu 02:19:39 PM 39.9908 -73.8975 108° East 325 374 10,000 102 Climbing New Center
Thu 02:20:39 PM 39.9589 -73.7714 108° East 349 402 9,900 -50 Descending New Center
Thu 02:21:40 PM 39.9514 -73.6519 95° East 339 390 9,900 1,088 Level New Center
Thu 02:23:52 PM 40.0519 -73.4050 62° Northeast 349 402 13,400 1,563 Climbing Boston Center
Thu 02:24:52 PM 40.1403 -73.3006 42° Northeast 383 441 14,900 750 Climbing Boston Center
Thu 02:25:52 PM 40.2347 -73.1847 43° Northeast 425 489 14,900  Level Boston Center
Thu 02:26:52 PM 40.3272 -73.0689 44° Northeast 443 510 14,900  Level Boston Center
Thu 02:27:52 PM 40.4194 -72.9525 44° Northeast 449 517 14,900  Level Boston Center
Thu 02:28:52 PM 40.5136 -72.8331 44° Northeast 454 522 14,900  Level Boston Center
Thu 02:29:52 PM 40.6036 -72.7161 45° Northeast 454 522 14,900  Level Boston Center
Thu 02:30:52 PM 40.6853 -72.5658 54° Northeast 454 522 14,900 -409 Level Boston Center
Thu 02:32:04 PM 40.7708 -72.4017 55° Northeast 454 522 14,000 -1,136 Descending Boston Center
Thu 02:33:04 PM 40.8436 -72.2756 53° Northeast 444 511 12,400 -1,529 Descending Boston Center
Thu 02:33:46 PM 40.8850 -72.2122 49° Northeast 434 499 11,400 -1,167 Descending Boston Center
Thu 02:34:16 PM 40.9142 -72.1572 55° Northeast 421 484 11,000 -393 Descending Boston Center
Thu 02:34:47 PM 40.9536 -72.0967 49° Northeast 417 480 11,000 -100 Level Boston Center
Thu 02:35:16 PM 40.9806 -72.0414 57° Northeast 406 467 10,900  Descending Boston Center
Thu 02:35:48 PM 41.0178 -71.9806 51° Northeast 399 459 11,000 100 Climbing Boston Center
Thu 02:36:16 PM 41.0592 -71.9061 54° Northeast 395 455 11,000 -100 Level Boston Center
Thu 02:36:48 PM 41.0839 -71.8756 43° Northeast 395 455 10,900 -1,226 Descending Boston Center
Thu 02:37:49 PM 41.1689 -71.7947 36° Northeast 339 390 9,100 -1,759 Descending Boston Center
Thu 02:38:44 PM 41.2269 -71.7364 37° Northeast 306 352 7,500 -1,878 Descending Boston Center
Thu 02:39:44 PM 41.2975 -71.6692 36° Northeast 289 333 5,500 -1,240 Descending Boston Center
Thu 02:40:45 PM 41.3533 -71.6161 35° Northeast 263 303 5,000 -246 Descending Boston Center
Thu 02:41:46 PM 41.4153 -71.5600 34° Northeast 258 297 5,000 -593 Level Boston Center
Thu 02:43:00 PM 41.5185 -71.5161 North  Level Estimated
Thu 02:43:47 PM 41.5292 -71.4503 North 258 297 3,200  Level Boston Center
Thu 02:44:48 PM 41.5869 -71.3964 35° Northeast 255 293 3,100 -397 Descending Boston Center
Thu 02:45:48 PM 41.6367 -71.3514 34° Northeast 218 251 2,400 -992 Descending Boston Center
Thu 02:46:49 PM 41.6742 -71.3756 334° Northwest 157 181 1,100 -689 Descending Boston Center
Thu 02:47:50 PM 41.6933 -71.3947 323° Northwest 155 178 1,000 -50 Descending Boston Center
Thu 02:48:50 PM 41.6933 -71.3947 334° Northwest 155 178 1,000  Level Boston Center

Login

Don't have an account? Register now (free) for customized features, flight alerts, and more!